createdAt,value
2023-01-11T00:00:48.057Z,7.43
2023-01-11T00:03:16.052Z,6.05
2023-01-11T00:05:45.218Z,5.15
2023-01-11T00:08:12.923Z,3.17
2023-01-11T00:10:40.361Z,6.25
2023-01-11T00:13:07.631Z,5.03
2023-01-11T00:15:39.172Z,7.60
2023-01-11T00:18:06.583Z,7.97
2023-01-11T00:20:33.767Z,7.20
2023-01-11T00:23:01.107Z,4.80
2023-01-11T00:25:28.404Z,4.70
2023-01-11T00:27:55.589Z,5.00
2023-01-11T00:30:23.038Z,5.75
2023-01-11T00:32:50.307Z,5.85
2023-01-11T00:35:17.404Z,5.55
2023-01-11T00:37:44.430Z,3.67
2023-01-11T00:40:11.987Z,5.93
2023-01-11T00:42:57.642Z,4.78
2023-01-11T00:45:43.688Z,6.57
2023-01-11T00:48:10.897Z,5.88
2023-01-11T00:50:40.865Z,4.57
2023-01-11T00:53:09.161Z,7.15
2023-01-11T00:55:36.629Z,5.95
2023-01-11T00:58:03.802Z,6.90
2023-01-11T01:00:31.448Z,7.32
2023-01-11T01:02:58.638Z,7.25
2023-01-11T01:05:25.911Z,8.02
2023-01-11T01:07:53.180Z,9.20
2023-01-11T01:10:21.103Z,7.07
2023-01-11T01:13:23.661Z,5.60
2023-01-11T01:15:59.522Z,4.35
2023-01-11T01:18:26.956Z,4.28
2023-01-11T01:20:53.909Z,6.28
2023-01-11T01:23:21.266Z,4.85
2023-01-11T01:25:48.400Z,8.50
2023-01-11T01:28:15.467Z,3.95
2023-01-11T01:30:43.050Z,3.85
2023-01-11T01:33:09.944Z,5.63
2023-01-11T01:35:38.696Z,4.65
2023-01-11T01:38:06.203Z,5.28
2023-01-11T01:40:33.188Z,6.57
2023-01-11T01:43:00.430Z,5.18
2023-01-11T01:45:28.908Z,5.05
2023-01-11T01:48:04.006Z,6.13
2023-01-11T01:50:46.679Z,3.80
2023-01-11T01:53:38.947Z,5.90
2023-01-11T01:56:12.841Z,7.22
2023-01-11T01:58:49.399Z,6.68
2023-01-11T02:01:36.602Z,4.32
2023-01-11T02:04:33.084Z,7.75
2023-01-11T02:07:05.220Z,5.90
2023-01-11T02:10:10.410Z,4.63
2023-01-11T02:15:41.699Z,4.90
2023-01-11T02:18:14.124Z,7.00
2023-01-11T02:21:01.328Z,6.90
2023-01-11T02:24:15.598Z,5.78
2023-01-11T02:27:06.693Z,5.15
2023-01-11T02:30:17.091Z,6.38
2023-01-11T02:32:53.751Z,6.25
2023-01-11T02:35:37.291Z,7.88
2023-01-11T02:38:16.755Z,6.10
2023-01-11T02:41:01.573Z,4.32
2023-01-11T02:44:05.718Z,4.88
2023-01-11T02:46:33.816Z,5.60
2023-01-11T02:49:31.591Z,6.75
2023-01-11T02:52:20.780Z,6.68
2023-01-11T02:54:55.671Z,6.13
2023-01-11T02:57:25.701Z,7.53
2023-01-11T02:59:56.083Z,5.75
2023-01-11T03:02:23.779Z,7.38
2023-01-11T03:04:51.137Z,5.72
2023-01-11T03:07:43.611Z,7.03
2023-01-11T03:10:56.129Z,6.13
2023-01-11T03:13:44.275Z,5.93
2023-01-11T03:16:26.421Z,5.28
2023-01-11T03:19:19.980Z,6.43
2023-01-11T03:22:04.420Z,7.75
2023-01-11T03:27:16.543Z,8.07
2023-01-11T03:29:52.525Z,6.47
2023-01-11T03:32:41.016Z,7.43
2023-01-11T03:35:31.443Z,5.75
2023-01-11T03:38:07.557Z,5.47
2023-01-11T03:40:50.916Z,7.47
2023-01-11T03:43:21.969Z,6.70
2023-01-11T03:45:53.028Z,7.40
2023-01-11T03:49:00.800Z,8.88
2023-01-11T03:51:32.877Z,8.40
2023-01-11T03:54:03.982Z,7.05
2023-01-11T03:56:59.718Z,6.20
2023-01-11T03:59:27.695Z,6.45
2023-01-11T04:01:56.693Z,7.07
2023-01-11T04:04:24.530Z,9.68
2023-01-11T04:06:52.183Z,8.63
2023-01-11T04:09:19.203Z,6.10
2023-01-11T04:11:46.205Z,7.15
2023-01-11T04:14:13.231Z,8.27
2023-01-11T04:16:40.225Z,13.43
2023-01-11T04:19:07.239Z,7.38
2023-01-11T04:21:34.249Z,7.05
2023-01-11T04:24:01.305Z,5.82
2023-01-11T04:26:28.381Z,5.47
2023-01-11T04:28:55.329Z,5.03
2023-01-11T04:31:22.459Z,11.30
2023-01-11T04:33:49.478Z,6.60
2023-01-11T04:36:16.519Z,5.97
2023-01-11T04:38:43.694Z,6.10
2023-01-11T04:41:29.257Z,6.55
2023-01-11T04:43:57.356Z,5.28
2023-01-11T04:46:25.044Z,6.32
2023-01-11T04:48:52.649Z,7.22
2023-01-11T04:51:19.709Z,5.28
2023-01-11T04:53:49.853Z,7.60
2023-01-11T04:56:17.807Z,7.78
2023-01-11T04:58:46.238Z,6.68
2023-01-11T05:01:19.046Z,5.97
2023-01-11T05:03:47.424Z,4.30
2023-01-11T05:06:15.365Z,5.57
2023-01-11T05:08:47.569Z,5.20
2023-01-11T05:11:16.312Z,7.88
2023-01-11T05:13:43.671Z,4.72
2023-01-11T05:16:10.711Z,7.10
2023-01-11T05:18:49.650Z,9.85
2023-01-11T05:21:20.028Z,6.25
2023-01-11T05:23:47.669Z,6.15
2023-01-11T05:26:18.902Z,7.78
2023-01-11T05:28:46.791Z,8.30
2023-01-11T05:31:13.824Z,7.85
2023-01-11T05:33:41.001Z,7.30
2023-01-11T05:36:20.306Z,6.72
2023-01-11T05:38:49.746Z,11.80
2023-01-11T05:41:18.493Z,5.13
2023-01-11T05:44:05.875Z,7.18
2023-01-11T05:46:34.887Z,4.80
2023-01-11T05:49:03.148Z,7.20
2023-01-11T05:51:31.210Z,4.78
2023-01-11T05:53:59.278Z,5.38
2023-01-11T05:56:27.059Z,5.70
2023-01-11T05:58:54.320Z,7.78
2023-01-11T06:01:23.738Z,9.13
2023-01-11T06:03:51.732Z,6.25
2023-01-11T06:06:20.187Z,10.15
2023-01-11T06:08:47.939Z,8.93
2023-01-11T06:11:15.681Z,10.23
2023-01-11T06:13:42.949Z,4.63
2023-01-11T06:16:14.148Z,6.95
2023-01-11T06:18:48.309Z,8.13
2023-01-11T06:21:16.980Z,5.20
2023-01-11T06:23:47.945Z,5.80
2023-01-11T06:26:18.628Z,9.38
2023-01-11T06:28:45.762Z,7.32
2023-01-11T06:31:14.843Z,7.45
2023-01-11T06:33:43.149Z,7.47
2023-01-11T06:36:12.278Z,9.00
2023-01-11T06:38:39.627Z,7.72
2023-01-11T06:41:08.584Z,6.85
2023-01-11T06:43:38.030Z,7.97
2023-01-11T06:46:05.920Z,7.47
2023-01-11T06:48:33.251Z,9.48
2023-01-11T06:51:00.354Z,5.47
2023-01-11T06:53:29.365Z,7.15
2023-01-11T06:55:58.489Z,5.75
2023-01-11T06:58:26.687Z,6.97
2023-01-11T07:01:00.496Z,6.90
2023-01-11T07:03:28.277Z,7.22
2023-01-11T07:05:57.480Z,8.60
2023-01-11T07:08:26.411Z,7.65
2023-01-11T07:10:54.421Z,7.53
2023-01-11T07:13:23.240Z,8.80
2023-01-11T07:15:53.960Z,7.55
2023-01-11T07:18:22.163Z,10.13
2023-01-11T07:20:54.640Z,7.68
2023-01-11T07:23:22.017Z,11.20
2023-01-11T07:25:49.971Z,11.38
2023-01-11T07:28:17.145Z,9.00
2023-01-11T07:30:57.473Z,11.80
2023-01-11T07:33:26.123Z,7.57
2023-01-11T07:35:53.724Z,7.70
2023-01-11T07:38:21.119Z,7.70
2023-01-11T07:40:50.270Z,8.00
2023-01-11T07:43:23.391Z,7.53
2023-01-11T07:45:52.914Z,7.35
2023-01-11T07:48:26.197Z,6.07
2023-01-11T07:50:53.689Z,8.75
2023-01-11T07:53:21.881Z,5.97
2023-01-11T07:55:48.898Z,8.07
2023-01-11T07:58:16.070Z,8.90
2023-01-11T08:00:43.699Z,7.20
2023-01-11T08:03:11.352Z,11.88
2023-01-11T08:05:38.582Z,10.82
2023-01-11T08:08:06.842Z,6.68
2023-01-11T08:10:34.467Z,10.63
2023-01-11T08:13:21.268Z,6.75
2023-01-11T08:15:48.621Z,13.45
2023-01-11T08:18:17.196Z,10.00
2023-01-11T08:20:45.674Z,14.45
2023-01-11T08:23:12.713Z,9.57
2023-01-11T08:25:39.595Z,9.95
2023-01-11T08:28:07.914Z,8.75
2023-01-11T08:30:36.456Z,13.82
2023-01-11T08:33:05.143Z,9.05
2023-01-11T08:35:37.998Z,11.48
2023-01-11T08:38:04.971Z,8.77
2023-01-11T08:40:31.935Z,9.63
2023-01-11T08:42:59.499Z,8.75
2023-01-11T08:45:27.174Z,11.75
2023-01-11T08:47:55.086Z,14.05
2023-01-11T08:50:22.942Z,10.75
2023-01-11T08:52:51.665Z,11.95
2023-01-11T08:55:19.944Z,11.82
2023-01-11T08:57:47.920Z,7.63
2023-01-11T09:00:16.507Z,10.95
2023-01-11T09:02:45.432Z,15.98
2023-01-11T09:05:12.763Z,11.50
2023-01-11T09:07:40.002Z,10.55
2023-01-11T09:10:07.563Z,14.40
2023-01-11T09:12:34.813Z,10.20
2023-01-11T09:15:01.957Z,10.65
2023-01-11T09:17:28.982Z,15.50
2023-01-11T09:19:56.188Z,13.55
2023-01-11T09:22:23.563Z,10.60
2023-01-11T09:24:50.568Z,12.63
2023-01-11T09:27:17.657Z,11.70
2023-01-11T09:29:46.089Z,9.35
2023-01-11T09:32:13.111Z,12.02
2023-01-11T09:34:41.848Z,10.43
2023-01-11T09:37:09.106Z,14.82
2023-01-11T09:39:37.151Z,14.93
2023-01-11T09:42:39.048Z,10.35
2023-01-11T09:45:24.002Z,13.68
2023-01-11T09:48:03.749Z,10.00
2023-01-11T09:50:40.069Z,10.05
2023-01-11T09:53:15.100Z,11.75
2023-01-11T09:55:47.602Z,14.40
2023-01-11T09:58:46.973Z,8.98
2023-01-11T10:01:17.701Z,9.00
2023-01-11T10:04:06.250Z,11.65
2023-01-11T10:06:45.286Z,10.75
2023-01-11T10:18:28.361Z,8.43
2023-01-11T10:19:40.812Z,9.73
2023-01-11T10:22:21.166Z,9.57
2023-01-11T10:25:14.731Z,12.57
2023-01-11T10:28:00.854Z,11.88
2023-01-11T10:30:41.950Z,12.18
2023-01-11T10:33:59.449Z,10.20
2023-01-11T10:36:55.519Z,10.07
2023-01-11T10:39:55.697Z,12.32
2023-01-11T10:42:28.175Z,7.55
2023-01-11T10:45:18.797Z,12.43
2023-01-11T10:47:57.728Z,9.93
2023-01-11T10:50:32.480Z,14.68
2023-01-11T10:53:23.504Z,13.02
2023-01-11T10:56:07.154Z,12.35
2023-01-11T10:59:22.004Z,11.23
2023-01-11T11:02:24.811Z,13.48
2023-01-11T11:05:08.000Z,11.63
2023-01-11T11:08:14.924Z,17.42
2023-01-11T11:11:05.608Z,13.75
2023-01-11T11:14:02.876Z,13.57
2023-01-11T11:17:09.440Z,14.88
2023-01-11T11:19:36.508Z,10.20
2023-01-11T11:22:04.051Z,13.02
2023-01-11T11:24:41.117Z,11.80
2023-01-11T11:27:42.362Z,11.60
2023-01-11T11:30:14.396Z,11.98
2023-01-11T11:32:55.158Z,10.93
2023-01-11T11:35:39.221Z,11.30
2023-01-11T11:38:06.726Z,13.38
2023-01-11T11:40:38.802Z,12.90
2023-01-11T11:43:12.475Z,13.20
2023-01-11T11:45:52.320Z,12.80
2023-01-11T11:48:20.125Z,12.07
2023-01-11T11:50:49.677Z,13.77
2023-01-11T11:53:37.228Z,21.38
2023-01-11T11:56:30.057Z,10.50
2023-01-11T11:58:58.696Z,12.40
2023-01-11T12:01:37.793Z,9.35
2023-01-11T12:04:22.118Z,13.10
2023-01-11T12:07:05.492Z,9.65
2023-01-11T12:09:35.295Z,22.27
2023-01-11T12:12:03.555Z,13.75
2023-01-11T12:14:35.447Z,14.52
2023-01-11T12:17:25.714Z,11.05
2023-01-11T12:19:52.688Z,24.38
2023-01-11T12:22:29.169Z,13.05
2023-01-11T12:25:08.567Z,11.55
2023-01-11T12:28:02.738Z,13.32
2023-01-11T12:31:09.527Z,22.52
2023-01-11T12:33:58.797Z,10.07
2023-01-11T12:36:40.280Z,10.13
2023-01-11T12:39:37.462Z,15.13
2023-01-11T12:42:23.173Z,9.55
2023-01-11T12:45:46.367Z,11.55
2023-01-11T12:48:38.201Z,12.82
2023-01-11T12:51:43.849Z,15.73
2023-01-11T12:54:31.869Z,12.55
2023-01-11T12:57:19.105Z,12.57
2023-01-11T13:00:21.706Z,10.68
2023-01-11T13:03:16.132Z,9.77
2023-01-11T13:05:57.288Z,9.50
2023-01-11T13:08:54.274Z,11.20
2023-01-11T13:11:43.602Z,8.73
2023-01-11T13:14:31.342Z,8.07
2023-01-11T13:17:22.845Z,8.70
2023-01-11T13:20:09.217Z,6.97
2023-01-11T13:22:44.013Z,9.48
2023-01-11T13:25:21.216Z,5.55
2023-01-11T13:27:51.759Z,6.75
2023-01-11T13:30:20.282Z,9.23
2023-01-11T13:33:13.051Z,9.45
2023-01-11T13:35:49.951Z,8.93
2023-01-11T13:38:54.088Z,8.88
2023-01-11T13:41:31.614Z,8.85
2023-01-11T13:44:24.899Z,6.45
2023-01-11T13:47:06.677Z,7.90
2023-01-11T13:50:35.537Z,9.57
2023-01-11T13:53:24.920Z,12.23
2023-01-11T13:56:06.410Z,9.15
2023-01-11T13:59:14.419Z,8.20
2023-01-11T14:02:04.972Z,13.60
2023-01-11T14:04:56.430Z,16.42
2023-01-11T14:07:52.074Z,9.05
2023-01-11T14:10:51.761Z,7.18
2023-01-11T14:17:29.312Z,9.57
2023-01-11T14:20:23.355Z,10.40
2023-01-11T14:26:21.808Z,10.57
2023-01-11T14:29:25.684Z,10.07
2023-01-11T14:32:08.429Z,11.43
2023-01-11T14:34:37.854Z,8.80
2023-01-11T14:37:07.825Z,10.57
2023-01-11T14:40:02.130Z,10.35
2023-01-11T14:42:51.151Z,15.38
2023-01-11T14:45:54.237Z,9.70
2023-01-11T14:49:01.729Z,15.15
2023-01-11T14:51:44.870Z,18.15
2023-01-11T14:54:24.535Z,14.60
2023-01-11T14:56:55.890Z,13.50
2023-01-11T14:59:37.912Z,15.20
2023-01-11T15:02:04.943Z,14.10
2023-01-11T15:04:58.008Z,15.85
2023-01-11T15:07:28.875Z,12.07
2023-01-11T15:09:58.282Z,15.63
2023-01-11T15:12:38.165Z,12.98
2023-01-11T15:15:20.133Z,15.25
2023-01-11T15:18:15.348Z,19.92
2023-01-11T15:20:55.117Z,17.05
2023-01-11T15:23:23.023Z,11.10
2023-01-11T15:26:01.365Z,15.73
2023-01-11T15:28:50.675Z,12.05
2023-01-11T15:31:37.136Z,16.00
2023-01-11T15:34:47.112Z,16.60
2023-01-11T15:37:52.862Z,15.48
2023-01-11T15:40:23.070Z,15.05
2023-01-11T15:43:51.094Z,10.77
2023-01-11T15:46:53.379Z,14.40
2023-01-11T15:50:02.437Z,12.90
2023-01-11T15:52:54.205Z,13.15
2023-01-11T15:56:22.113Z,13.95
2023-01-11T15:59:55.896Z,12.15
2023-01-11T16:02:57.820Z,15.00
2023-01-11T16:05:31.334Z,11.50
2023-01-11T16:15:05.661Z,17.95
2023-01-11T16:17:33.078Z,16.17
2023-01-11T16:23:20.707Z,26.90
2023-01-11T16:25:56.211Z,23.35
2023-01-11T16:28:23.550Z,19.23
2023-01-11T16:31:05.675Z,24.33
2023-01-11T16:33:35.079Z,20.92
2023-01-11T16:36:14.783Z,21.30
2023-01-11T16:38:47.724Z,19.77
2023-01-11T16:41:16.835Z,25.02
2023-01-11T16:43:54.336Z,33.30
2023-01-11T16:46:46.947Z,30.08
2023-01-11T16:49:18.300Z,29.38
2023-01-11T16:51:46.330Z,25.25
2023-01-11T16:54:31.960Z,15.63
2023-01-11T16:57:01.108Z,21.35
2023-01-11T16:59:34.961Z,17.25
2023-01-11T17:02:03.912Z,22.67
2023-01-11T17:04:49.559Z,16.23
2023-01-11T17:07:24.144Z,20.00
2023-01-11T17:09:51.952Z,18.85
2023-01-11T17:12:25.550Z,21.77
2023-01-11T17:15:19.166Z,22.00
2023-01-11T17:17:46.707Z,20.05
2023-01-11T17:20:22.069Z,18.95
2023-01-11T17:22:53.819Z,14.10
2023-01-11T17:25:37.355Z,16.67
2023-01-11T17:28:18.925Z,13.88
2023-01-11T17:30:49.393Z,17.88
2023-01-11T17:33:31.677Z,22.10
2023-01-11T17:36:00.219Z,20.77
2023-01-11T17:38:28.976Z,16.35
2023-01-11T17:40:58.122Z,15.13
2023-01-11T17:43:48.112Z,15.00
2023-01-11T17:46:23.822Z,16.38
2023-01-11T17:48:54.858Z,17.63
2023-01-11T17:51:35.144Z,17.20
2023-01-11T17:54:03.067Z,17.75
2023-01-11T17:56:33.189Z,15.80
2023-01-11T17:59:27.384Z,21.45
2023-01-11T18:01:57.901Z,19.83
2023-01-11T18:04:27.448Z,17.88
2023-01-11T18:07:04.690Z,22.40
2023-01-11T18:09:36.353Z,29.20
2023-01-11T18:12:12.383Z,28.35
2023-01-11T18:14:48.564Z,29.55
2023-01-11T18:17:42.039Z,25.75
2023-01-11T18:20:15.860Z,29.55
2023-01-11T18:23:23.094Z,28.00
2023-01-11T18:25:50.841Z,37.20
2023-01-11T18:28:17.785Z,37.40
2023-01-11T18:30:48.361Z,41.90
2023-01-11T18:33:19.908Z,31.70
2023-01-11T18:35:51.302Z,29.63
2023-01-11T18:38:26.606Z,41.42
2023-01-11T18:40:54.497Z,35.13
2023-01-11T18:43:28.598Z,37.13
2023-01-11T18:45:56.259Z,38.22
2023-01-11T18:48:23.667Z,39.58
2023-01-11T18:50:52.153Z,45.70
2023-01-11T18:53:19.160Z,34.85
2023-01-11T18:55:46.542Z,39.17
2023-01-11T18:58:13.945Z,37.72
2023-01-11T19:00:41.668Z,40.28
2023-01-11T19:03:11.632Z,38.17
2023-01-11T19:05:39.991Z,44.65
2023-01-11T19:08:08.467Z,33.58
2023-01-11T19:10:35.368Z,32.85
2023-01-11T19:13:02.286Z,36.92
2023-01-11T19:15:29.396Z,32.80
2023-01-11T19:17:57.490Z,33.75
2023-01-11T19:20:24.993Z,26.95
2023-01-11T19:22:52.034Z,29.60
2023-01-11T19:25:19.260Z,34.35
2023-01-11T19:27:46.466Z,32.53
2023-01-11T19:30:13.848Z,28.55
2023-01-11T19:32:40.850Z,29.35
2023-01-11T19:35:08.517Z,34.30
2023-01-11T19:37:37.878Z,27.63
2023-01-11T19:40:05.937Z,28.70
2023-01-11T19:42:32.984Z,26.77
2023-01-11T19:45:00.020Z,27.05
2023-01-11T19:47:27.070Z,24.63
2023-01-11T19:49:56.465Z,25.45
2023-01-11T19:52:23.626Z,23.00
2023-01-11T19:54:51.342Z,22.80
2023-01-11T19:57:20.704Z,26.48
2023-01-11T19:59:49.171Z,27.90
2023-01-11T20:02:19.424Z,21.77
2023-01-11T20:04:46.891Z,22.48
2023-01-11T20:07:15.231Z,21.88
2023-01-11T20:09:42.329Z,24.08
2023-01-11T20:12:12.391Z,26.05
2023-01-11T20:14:40.568Z,22.67
2023-01-11T20:17:08.589Z,27.38
2023-01-11T20:19:35.857Z,31.10
2023-01-11T20:22:02.762Z,36.70
2023-01-11T20:24:30.203Z,36.47
2023-01-11T20:27:01.052Z,39.40
2023-01-11T20:29:28.583Z,43.60
2023-01-11T20:31:58.235Z,41.33
2023-01-11T20:34:29.990Z,36.25
2023-01-11T20:36:57.073Z,38.75
2023-01-11T20:39:25.402Z,39.22
2023-01-11T20:41:52.759Z,37.97
2023-01-11T20:44:28.011Z,38.60
2023-01-11T20:46:59.056Z,36.40
2023-01-11T20:49:29.244Z,32.08
2023-01-11T20:51:56.882Z,32.40
2023-01-11T20:54:24.150Z,30.25
2023-01-11T20:56:51.155Z,30.38
2023-01-11T20:59:20.222Z,29.42
2023-01-11T21:01:48.942Z,31.17
2023-01-11T21:04:18.010Z,31.10
2023-01-11T21:06:50.446Z,28.42
2023-01-11T21:09:18.635Z,39.25
2023-01-11T21:11:52.987Z,34.05
2023-01-11T21:16:48.849Z,30.55
2023-01-11T21:19:16.638Z,34.58
2023-01-11T21:21:43.795Z,36.17
2023-01-11T21:24:15.469Z,35.25
2023-01-11T21:26:45.567Z,35.63
2023-01-11T21:29:13.188Z,32.67
2023-01-11T21:31:41.316Z,30.38
2023-01-11T21:34:11.868Z,37.53
2023-01-11T21:36:39.679Z,30.95
2023-01-11T21:39:07.010Z,30.98
2023-01-11T21:41:52.502Z,29.52
2023-01-11T21:44:22.378Z,28.85
2023-01-11T21:46:50.219Z,34.28
2023-01-11T21:49:17.591Z,31.95
2023-01-11T21:51:44.846Z,31.20
2023-01-11T21:54:14.742Z,30.80
2023-01-11T21:56:42.094Z,30.50
2023-01-11T21:59:09.961Z,31.40
2023-01-11T22:01:39.507Z,33.65
2023-01-11T22:04:09.109Z,30.45
2023-01-11T22:06:38.371Z,28.08
2023-01-11T22:09:06.970Z,31.10
2023-01-11T22:11:34.152Z,29.80
2023-01-11T22:14:02.700Z,31.27
2023-01-11T22:16:31.621Z,33.97
2023-01-11T22:19:00.335Z,33.15
2023-01-11T22:21:28.319Z,32.63
2023-01-11T22:23:58.158Z,29.70
2023-01-11T22:26:27.502Z,32.78
2023-01-11T22:29:14.154Z,32.97
2023-01-11T22:31:54.813Z,30.42
2023-01-11T22:34:22.545Z,28.85
2023-01-11T22:36:49.629Z,32.05
2023-01-11T22:39:19.441Z,29.10
2023-01-11T22:41:48.898Z,32.15
2023-01-11T22:44:16.349Z,29.90
2023-01-11T22:46:44.056Z,30.02
2023-01-11T22:49:11.683Z,27.95
2023-01-11T22:51:41.249Z,33.67
2023-01-11T22:54:09.178Z,26.13
2023-01-11T22:56:36.567Z,29.80
2023-01-11T22:59:03.931Z,24.52
2023-01-11T23:01:41.737Z,28.17
2023-01-11T23:04:13.316Z,26.83
2023-01-11T23:06:42.046Z,31.30
2023-01-11T23:09:16.029Z,31.63
2023-01-11T23:12:03.034Z,29.90
2023-01-11T23:14:33.048Z,30.75
2023-01-11T23:17:09.081Z,40.67
2023-01-11T23:19:40.253Z,39.50
2023-01-11T23:22:09.579Z,38.97
2023-01-11T23:24:38.463Z,42.00
2023-01-11T23:27:05.927Z,32.85
2023-01-11T23:29:33.020Z,36.38
2023-01-11T23:32:00.189Z,33.60
2023-01-11T23:34:27.459Z,36.05
2023-01-11T23:36:54.406Z,34.97
2023-01-11T23:39:21.500Z,32.85
2023-01-11T23:42:07.258Z,32.13
2023-01-11T23:44:34.638Z,34.25
2023-01-11T23:47:20.397Z,36.05
2023-01-11T23:49:52.193Z,39.40
2023-01-11T23:52:22.081Z,42.35
2023-01-11T23:54:49.638Z,39.00
2023-01-11T23:57:18.432Z,39.17
2023-01-11T23:59:45.927Z,48.80
